Time;durP1;ratioP1;P1;durP2;ratioP2;P2;SDS_P1;SDS_P2;PMS_P1;PMS_P2;Temp;Humidity;BMP_temperature;BMP_pressure;BME280_temperature;BME280_humidity;BME280_pressure;Samples;Min_cycle;Max_cycle;Signal;HPM_P1;HPM_P2
2021/06/04 00:01:19;;;;;;;0.03;0.03;;;18.60;80.40;;;;;;5074449;28;20107;-91
2021/06/04 00:03:45;;;;;;;0.30;0.30;;;18.70;80.60;;;;;;5073281;28;20021;-90
2021/06/04 00:06:12;;;;;;;0.10;0.10;;;18.70;80.00;;;;;;5073454;28;20052;-89
2021/06/04 00:08:38;;;;;;;0.13;0.13;;;18.80;80.00;;;;;;5072922;28;20028;-91
2021/06/04 00:11:39;;;;;;;0.20;0.20;;;18.80;79.20;;;;;;5072839;28;20035;-91
2021/06/04 00:14:13;;;;;;;0.35;0.35;;;18.80;80.20;;;;;;5069493;28;20267;-90
2021/06/04 00:16:51;;;;;;;0.08;0.08;;;18.70;79.20;;;;;;5073501;28;20021;-92
2021/06/04 00:19:21;;;;;;;0.10;0.10;;;18.80;78.80;;;;;;5073148;28;20052;-91
2021/06/04 00:21:50;;;;;;;0.28;0.20;;;18.80;78.10;;;;;;5072967;28;20489;-90
2021/06/04 00:24:17;;;;;;;0.10;0.10;;;18.80;78.50;;;;;;5071903;28;20028;-90
2021/06/04 00:26:46;;;;;;;0.20;0.13;;;18.80;78.90;;;;;;5072007;28;20094;-91
2021/06/04 00:29:12;;;;;;;0.30;0.30;;;18.80;79.10;;;;;;5071492;28;20052;-91
2021/06/04 00:31:46;;;;;;;0.00;0.00;;;18.80;77.90;;;;;;5071730;28;20024;-89
2021/06/04 00:34:13;;;;;;;1.08;0.30;;;18.80;78.00;;;;;;5063714;28;20028;-92
2021/06/04 00:36:44;;;;;;;0.10;0.10;;;18.70;77.90;;;;;;5071475;28;20032;-90
2021/06/04 00:39:11;;;;;;;0.50;0.50;;;18.70;77.90;;;;;;5072404;28;20367;-90
2021/06/04 00:41:50;;;;;;;0.28;0.28;;;18.80;77.50;;;;;;5072601;28;20032;-91
2021/06/04 00:44:16;;;;;;;0.32;0.32;;;18.70;77.80;;;;;;5072442;28;20020;-90
2021/06/04 00:46:42;;;;;;;0.10;0.10;;;18.70;78.30;;;;;;5073566;28;20024;-91
2021/06/04 00:49:09;;;;;;;0.10;0.10;;;18.80;78.10;;;;;;5072585;28;20029;-91
2021/06/04 00:51:55;;;;;;;0.10;0.10;;;18.80;77.00;;;;;;5072373;28;20032;-90
2021/06/04 00:54:23;;;;;;;0.00;0.00;;;18.80;77.60;;;;;;5072030;28;20375;-93
2021/06/04 00:56:49;;;;;;;0.32;0.32;;;18.80;77.30;;;;;;5072245;28;20101;-91
2021/06/04 00:59:24;;;;;;;0.00;0.00;;;18.80;77.50;;;;;;5072670;28;20042;-91
2021/06/04 01:05:20;;;;;;;0.10;0.10;;;18.80;77.30;;;;;;5073281;28;20615;-92
2021/06/04 01:08:07;;;;;;;0.20;0.20;;;18.80;76.90;;;;;;5072069;28;20024;-90
2021/06/04 01:10:48;;;;;;;0.10;0.10;;;18.80;77.80;;;;;;5073433;28;20101;-91
2021/06/04 01:13:31;;;;;;;0.10;0.10;;;18.80;77.10;;;;;;5072036;28;20028;-91
2021/06/04 01:16:14;;;;;;;0.20;0.20;;;18.80;77.50;;;;;;5071986;28;20146;-90
2021/06/04 01:18:46;;;;;;;0.30;0.30;;;18.80;76.70;;;;;;5071609;28;20025;-90
2021/06/04 01:21:37;;;;;;;0.17;0.17;;;18.80;76.10;;;;;;5071520;28;20036;-90
2021/06/04 01:24:03;;;;;;;0.10;0.05;;;18.80;76.50;;;;;;5071702;28;20032;-91
2021/06/04 01:26:31;;;;;;;0.10;0.10;;;18.90;76.10;;;;;;5071337;28;20460;-90
2021/06/04 01:29:10;;;;;;;0.00;0.00;;;18.80;76.90;;;;;;5071252;28;20071;-91
2021/06/04 01:31:55;;;;;;;0.10;0.10;;;18.90;75.80;;;;;;5071774;28;20032;-91
2021/06/04 01:34:32;;;;;;;0.10;0.10;;;18.90;76.50;;;;;;5072015;28;20021;-93
2021/06/04 01:37:05;;;;;;;0.28;0.28;;;18.80;76.20;;;;;;5072097;28;20048;-92
2021/06/04 01:39:35;;;;;;;0.15;0.13;;;18.80;76.20;;;;;;5071848;28;20469;-91
2021/06/04 01:42:04;;;;;;;0.13;0.13;;;18.70;75.90;;;;;;5071644;28;20023;-89
2021/06/04 01:44:35;;;;;;;0.20;0.20;;;18.70;76.30;;;;;;5071667;28;20025;-90
2021/06/04 01:47:07;;;;;;;0.10;0.10;;;18.70;76.40;;;;;;5071674;28;20025;-90
2021/06/04 01:49:37;;;;;;;0.35;0.35;;;18.70;76.50;;;;;;5075455;28;20078;-90
2021/06/04 01:52:12;;;;;;;0.10;0.10;;;18.60;76.70;;;;;;5075766;28;20451;-90
2021/06/04 01:54:54;;;;;;;0.10;0.10;;;18.70;76.60;;;;;;5075707;28;20501;-91
2021/06/04 01:57:28;;;;;;;0.38;0.30;;;18.60;76.40;;;;;;5075790;28;20104;-90
2021/06/04 01:59:55;;;;;;;0.10;0.10;;;18.60;77.20;;;;;;5075646;28;20037;-90
2021/06/04 02:02:24;;;;;;;0.20;0.20;;;18.70;76.30;;;;;;5075965;28;20062;-92
2021/06/04 02:04:53;;;;;;;0.20;0.20;;;18.70;76.50;;;;;;5076077;28;20029;-92
2021/06/04 02:07:27;;;;;;;0.10;0.10;;;18.70;89.50;;;;;;5076262;28;20119;-94
2021/06/04 02:09:53;;;;;;;0.50;0.50;;;18.60;76.60;;;;;;5075927;28;20040;-91
2021/06/04 02:12:20;;;;;;;0.00;0.00;;;18.60;76.80;;;;;;5076227;28;20359;-93
2021/06/04 02:14:52;;;;;;;0.10;0.10;;;18.60;77.80;;;;;;5075939;28;20029;-93
2021/06/04 02:17:33;;;;;;;0.10;0.10;;;18.20;79.30;;;;;;5075827;28;20059;-92
2021/06/04 02:20:27;;;;;;;0.20;0.10;;;17.80;85.90;;;;;;5080660;28;20028;-92
2021/06/04 02:23:02;;;;;;;0.35;0.35;;;16.70;99.90;;;;;;5083297;28;20039;-93
2021/06/04 02:25:59;;;;;;;0.40;0.40;;;16.40;99.90;;;;;;5083352;28;20481;-92
2021/06/04 02:28:28;;;;;;;1.27;0.35;;;16.30;99.90;;;;;;5080294;28;20028;-91
2021/06/04 02:31:00;;;;;;;0.47;0.47;;;16.20;99.90;;;;;;5077995;28;20032;-93
2021/06/04 02:33:54;;;;;;;0.30;0.20;;;16.20;99.90;;;;;;5078366;28;20029;-93
2021/06/04 02:36:29;;;;;;;1.08;0.95;;;16.30;99.90;;;;;;5076042;28;20090;-92
2021/06/04 02:39:17;;;;;;;0.20;0.20;;;16.50;99.90;;;;;;5078694;28;20025;-91
2021/06/04 02:41:47;;;;;;;0.80;0.60;;;16.50;99.90;;;;;;5078594;28;20025;-94
2021/06/04 02:44:25;;;;;;;0.52;0.50;;;16.60;99.90;;;;;;5075578;28;20032;-92
2021/06/04 02:46:56;;;;;;;0.20;0.20;;;16.60;99.90;;;;;;5075686;28;20021;-93
2021/06/04 02:49:23;;;;;;;0.13;0.13;;;16.60;99.90;;;;;;5075325;28;20120;-92
2021/06/04 02:52:23;;;;;;;0.95;0.77;;;16.70;99.90;;;;;;5075437;28;20020;-94
2021/06/04 02:54:49;;;;;;;0.40;0.40;;;16.80;99.90;;;;;;5075443;28;20074;-93
2021/06/04 02:57:18;;;;;;;0.63;0.30;;;16.90;99.90;;;;;;5075983;28;20021;-93
2021/06/04 02:59:47;;;;;;;0.13;0.13;;;16.80;99.90;;;;;;5075264;28;20119;-92
2021/06/04 03:02:30;;;;;;;2.63;0.63;;;16.90;99.90;;;;;;5076628;28;20020;-94
2021/06/04 03:05:13;;;;;;;0.73;0.28;;;17.00;99.90;;;;;;5075513;28;20020;-92
2021/06/04 03:07:41;;;;;;;0.73;0.73;;;16.90;99.90;;;;;;5074899;28;20024;-93
2021/06/04 03:10:17;;;;;;;0.10;0.10;;;16.90;99.90;;;;;;5075310;28;20397;-91
2021/06/04 03:12:45;;;;;;;1.20;0.55;;;16.90;99.90;;;;;;5074995;28;20032;-92
2021/06/04 03:15:26;;;;;;;0.47;0.30;;;17.00;99.90;;;;;;5074933;28;20029;-92
2021/06/04 03:17:51;;;;;;;1.10;0.52;;;16.90;99.90;;;;;;5074677;28;20078;-92
2021/06/04 03:20:21;;;;;;;0.20;0.20;;;16.90;99.90;;;;;;5074588;28;20432;-95
2021/06/04 03:22:47;;;;;;;0.13;0.13;;;16.80;99.90;;;;;;5074988;28;20044;-91
2021/06/04 03:25:25;;;;;;;0.10;0.10;;;16.80;99.90;;;;;;5074976;28;20033;-93
2021/06/04 03:27:52;;;;;;;0.10;0.10;;;16.80;99.90;;;;;;5074978;28;20047;-92
2021/06/04 03:30:19;;;;;;;;;;;16.90;99.90;;;;;;5074982;28;20508;-93
2021/06/04 03:32:45;;;;;;;0.10;0.10;;;16.80;99.90;;;;;;5075248;28;19904;-92
2021/06/04 03:35:12;;;;;;;0.10;0.10;;;16.80;99.90;;;;;;5074969;28;20051;-92
2021/06/04 03:37:38;;;;;;;0.10;0.10;;;16.60;99.90;;;;;;5074463;28;20028;-93
2021/06/04 03:40:14;;;;;;;0.00;0.00;;;16.20;48.30;;;;;;5074676;28;20024;-92
2021/06/04 03:42:42;;;;;;;0.10;0.10;;;16.70;1.00;;;;;;5074475;28;20029;-93
2021/06/04 03:45:11;;;;;;;0.10;0.10;;;19.80;99.90;;;;;;5075065;28;20074;-93
2021/06/04 03:47:37;;;;;;;0.10;0.10;;;19.60;99.90;;;;;;5074619;28;20035;-93
2021/06/04 03:50:07;;;;;;;4.73;1.30;;;20.20;99.90;;;;;;5074268;28;20028;-93
2021/06/04 03:52:32;;;;;;;0.10;0.10;;;20.50;99.90;;;;;;5074487;28;20024;-93
2021/06/04 03:54:59;;;;;;;0.40;0.40;;;20.60;99.90;;;;;;5074299;28;20029;-92
2021/06/04 03:57:32;;;;;;;0.10;0.10;;;20.60;99.90;;;;;;5074314;28;20027;-94
2021/06/04 03:59:59;;;;;;;0.30;0.30;;;20.70;99.90;;;;;;5074074;28;20046;-93
2021/06/04 04:02:27;;;;;;;;;;;20.50;99.90;;;;;;5074522;28;20028;-93
2021/06/04 04:04:56;;;;;;;0.10;0.10;;;20.30;99.90;;;;;;5074327;28;19904;-92
2021/06/04 04:07:25;;;;;;;0.03;0.03;;;20.40;99.90;;;;;;5073991;28;20512;-91
2021/06/04 04:09:51;;;;;;;0.93;0.88;;;20.50;99.90;;;;;;5073777;28;20035;-92
2021/06/04 04:12:17;;;;;;;1.50;1.03;;;20.60;99.90;;;;;;5073446;28;20017;-92
2021/06/04 04:14:45;;;;;;;0.10;0.10;;;20.90;99.90;;;;;;5074416;28;20028;-93
2021/06/04 04:17:11;;;;;;;0.30;0.30;;;20.90;99.90;;;;;;5074044;28;20035;-94
2021/06/04 04:19:37;;;;;;;0.10;0.10;;;20.90;99.90;;;;;;5074879;28;20351;-93
2021/06/04 04:22:04;;;;;;;0.00;0.00;;;21.00;99.90;;;;;;5073871;28;20036;-93
2021/06/04 04:24:31;;;;;;;;;;;20.70;99.90;;;;;;5074342;28;20282;-91
2021/06/04 04:26:58;;;;;;;0.25;0.25;;;20.70;99.90;;;;;;5073661;28;19905;-93
2021/06/04 04:29:24;;;;;;;;;;;20.60;99.90;;;;;;5073643;28;20382;-91
2021/06/04 04:32:13;;;;;;;0.10;0.10;;;20.60;99.90;;;;;;5074522;28;19915;-93
2021/06/04 04:34:49;;;;;;;0.00;0.00;;;20.80;99.90;;;;;;5075958;28;20390;-95
2021/06/04 04:37:15;;;;;;;0.00;0.00;;;20.90;99.90;;;;;;5075422;28;20377;-94
2021/06/04 04:39:45;;;;;;;0.00;0.00;;;21.00;99.90;;;;;;5073831;28;20044;-93
2021/06/04 04:42:14;;;;;;;0.30;0.30;;;21.00;99.90;;;;;;5073588;28;20029;-90
2021/06/04 04:44:42;;;;;;;0.20;0.20;;;20.70;99.90;;;;;;5071832;28;20116;-89
2021/06/04 04:47:11;;;;;;;0.15;0.15;;;19.10;99.90;;;;;;5072269;28;20023;-88
2021/06/04 04:49:37;;;;;;;0.10;0.10;;;19.10;99.90;;;;;;5072377;28;20031;-91
2021/06/04 04:52:11;;;;;;;0.10;0.10;;;19.10;99.90;;;;;;5070192;28;20028;-91
2021/06/04 04:54:45;;;;;;;0.00;0.00;;;19.10;99.90;;;;;;5070423;28;20719;-88
2021/06/04 04:57:12;;;;;;;0.10;0.10;;;19.20;99.90;;;;;;5070113;28;20031;-88
2021/06/04 04:59:39;;;;;;;0.20;0.20;;;19.20;99.90;;;;;;5071999;28;20016;-87
2021/06/04 05:02:05;;;;;;;0.00;0.00;;;19.30;99.90;;;;;;5070044;28;20021;-88
2021/06/04 05:04:32;;;;;;;0.20;0.20;;;19.40;99.90;;;;;;5069405;28;20032;-88
2021/06/04 05:06:57;;;;;;;0.20;0.20;;;19.20;99.90;;;;;;5069916;28;20062;-88
2021/06/04 05:09:25;;;;;;;0.10;0.10;;;18.80;99.90;;;;;;5066634;28;20109;-86
2021/06/04 05:11:51;;;;;;;0.13;0.13;;;18.80;99.90;;;;;;5068112;28;20063;-85
2021/06/04 05:14:17;;;;;;;0.87;0.77;;;18.70;99.90;;;;;;5067966;28;20579;-85
2021/06/04 05:16:43;;;;;;;0.25;0.25;;;18.70;99.90;;;;;;5068223;28;20060;-86
2021/06/04 05:19:09;;;;;;;0.10;0.10;;;18.60;99.90;;;;;;5068728;28;20024;-85
2021/06/04 05:21:35;;;;;;;0.10;0.10;;;18.70;99.90;;;;;;5067511;28;20029;-87
2021/06/04 05:24:06;;;;;;;0.10;0.10;;;18.70;99.90;;;;;;5067540;28;20051;-84
2021/06/04 05:26:33;;;;;;;0.20;0.20;;;18.80;99.90;;;;;;5068229;28;20051;-84
2021/06/04 05:28:58;;;;;;;0.08;0.08;;;18.90;99.90;;;;;;5067814;28;20047;-84
2021/06/04 05:31:24;;;;;;;0.10;0.10;;;18.90;99.90;;;;;;5068362;28;20032;-87
2021/06/04 05:33:52;;;;;;;0.23;0.23;;;18.90;99.90;;;;;;5069148;28;20063;-88
2021/06/04 05:36:31;;;;;;;0.20;0.20;;;18.90;99.90;;;;;;5069493;28;20452;-91
2021/06/04 05:39:00;;;;;;;0.50;0.30;;;18.80;99.90;;;;;;5066575;28;20028;-87
2021/06/04 05:41:27;;;;;;;0.40;0.40;;;18.60;99.90;;;;;;5068102;28;20037;-87
2021/06/04 05:43:53;;;;;;;0.10;0.10;;;18.40;99.90;;;;;;5068703;28;20031;-90
2021/06/04 05:46:20;;;;;;;0.10;0.10;;;17.80;99.90;;;;;;5071139;28;20174;-89
2021/06/04 05:48:46;;;;;;;0.00;0.00;;;17.70;99.90;;;;;;5067597;28;20772;-85
2021/06/04 05:51:18;;;;;;;;;;;17.80;99.90;;;;;;5069020;28;20032;-84
2021/06/04 05:53:43;;;;;;;0.75;0.20;;;17.80;99.90;;;;;;5068530;28;20313;-85
2021/06/04 05:56:12;;;;;;;0.03;0.03;;;17.70;99.90;;;;;;5069306;28;20020;-88
2021/06/04 05:58:38;;;;;;;0.10;0.10;;;17.90;99.90;;;;;;5066697;28;20442;-90
2021/06/04 06:01:08;;;;;;;0.20;0.20;;;18.10;99.90;;;;;;5069449;28;20493;-90
2021/06/04 06:03:35;;;;;;;0.15;0.15;;;18.10;99.90;;;;;;5068531;28;20163;-88
2021/06/04 06:06:01;;;;;;;;;;;18.20;99.90;;;;;;5067562;28;20589;-89
2021/06/04 06:08:27;;;;;;;0.10;0.10;;;18.10;99.90;;;;;;5068444;28;20007;-89
2021/06/04 06:10:53;;;;;;;0.10;0.10;;;18.20;99.90;;;;;;5070354;28;20036;-89
2021/06/04 06:13:21;;;;;;;4.72;0.55;;;18.60;99.90;;;;;;5068185;28;20640;-89
2021/06/04 06:15:47;;;;;;;0.15;0.15;;;18.80;99.90;;;;;;5067594;28;20060;-89
2021/06/04 06:18:13;;;;;;;0.10;0.10;;;18.80;99.90;;;;;;5067559;28;20044;-87
2021/06/04 06:20:43;;;;;;;0.50;0.50;;;18.70;99.90;;;;;;5067163;28;20472;-86
2021/06/04 06:23:12;;;;;;;0.32;0.32;;;18.90;99.90;;;;;;5067623;28;20031;-89
2021/06/04 06:25:43;;;;;;;0.10;0.10;;;19.00;99.90;;;;;;5067005;28;20446;-88
2021/06/04 06:28:11;;;;;;;2.63;1.65;;;19.00;99.90;;;;;;5067700;28;20104;-89
2021/06/04 06:30:38;;;;;;;0.10;0.10;;;18.80;99.90;;;;;;5068736;28;20055;-89
2021/06/04 06:33:04;;;;;;;0.00;0.00;;;18.60;99.90;;;;;;5067379;28;20028;-88
2021/06/04 06:35:35;;;;;;;0.25;0.25;;;18.80;99.90;;;;;;5072173;28;20063;-89
2021/06/04 06:38:00;;;;;;;0.30;0.30;;;18.70;99.90;;;;;;5071282;28;20379;-89
2021/06/04 06:40:26;;;;;;;0.10;0.10;;;19.00;99.90;;;;;;5070900;28;20029;-88
2021/06/04 06:42:53;;;;;;;0.15;0.15;;;19.20;99.90;;;;;;5070759;28;20467;-87
2021/06/04 06:45:19;;;;;;;0.15;0.15;;;19.30;99.90;;;;;;5071949;28;20037;-89
2021/06/04 06:47:45;;;;;;;0.28;0.28;;;19.70;99.90;;;;;;5072536;28;20028;-89
2021/06/04 06:50:12;;;;;;;0.00;0.00;;;20.00;99.90;;;;;;5070568;28;20039;-89
2021/06/04 06:52:38;;;;;;;0.52;0.30;;;21.60;99.90;;;;;;5070087;28;20405;-89
2021/06/04 06:55:07;;;;;;;0.00;0.00;;;22.70;99.90;;;;;;5070600;28;20021;-89
2021/06/04 06:57:33;;;;;;;0.00;0.00;;;23.90;99.90;;;;;;5070952;28;20401;-89
2021/06/04 06:59:58;;;;;;;0.10;0.10;;;24.00;99.90;;;;;;5071413;28;20028;-90
2021/06/04 07:02:24;;;;;;;0.10;0.10;;;23.30;99.90;;;;;;5071422;28;20124;-91
2021/06/04 07:04:50;;;;;;;0.00;0.00;;;23.90;99.90;;;;;;5072391;28;20515;-89
2021/06/04 07:07:18;;;;;;;0.10;0.10;;;23.40;99.90;;;;;;5070713;28;20028;-89
2021/06/04 07:09:45;;;;;;;0.52;0.15;;;22.90;99.90;;;;;;5061130;28;20021;-90
2021/06/04 07:12:11;;;;;;;0.03;0.03;;;24.00;99.90;;;;;;5072305;28;20444;-89
2021/06/04 07:14:39;;;;;;;0.20;0.17;;;23.50;99.90;;;;;;5070747;28;20028;-90
2021/06/04 07:17:05;;;;;;;0.30;0.30;;;21.90;99.90;;;;;;5071613;28;20078;-90
2021/06/04 07:19:33;;;;;;;;;;;22.50;99.90;;;;;;5071403;28;20150;-89
2021/06/04 07:22:01;;;;;;;0.10;0.10;;;23.20;99.90;;;;;;5069812;28;19919;-88
2021/06/04 07:24:26;;;;;;;1.55;0.95;;;24.80;99.90;;;;;;5070300;28;20032;-89
2021/06/04 07:26:55;;;;;;;0.10;0.10;;;26.20;99.90;;;;;;5069083;28;20137;-91
2021/06/04 07:29:23;;;;;;;0.25;0.15;;;24.90;99.90;;;;;;5069931;28;20052;-90
2021/06/04 07:31:49;;;;;;;0.10;0.10;;;23.80;99.90;;;;;;5069914;28;20059;-91
2021/06/04 07:34:15;;;;;;;;;;;23.20;99.90;;;;;;5070389;28;20379;-90
2021/06/04 07:36:44;;;;;;;;;;;22.90;99.90;;;;;;5070194;28;20007;-90
2021/06/04 07:39:14;;;;;;;0.05;0.05;;;22.40;99.90;;;;;;5069907;28;20404;-89
2021/06/04 07:41:41;;;;;;;0.20;0.20;;;22.40;99.90;;;;;;5069811;28;20029;-92
2021/06/04 07:44:08;;;;;;;0.28;0.28;;;22.00;99.90;;;;;;5070097;28;20024;-92
2021/06/04 07:46:34;;;;;;;0.13;0.10;;;21.90;99.90;;;;;;5069565;28;20036;-90
2021/06/04 07:49:00;;;;;;;1.10;0.10;;;22.00;99.90;;;;;;5071121;28;20032;-90
2021/06/04 07:51:35;;;;;;;0.10;0.10;;;22.20;99.90;;;;;;5069802;28;20028;-91
2021/06/04 07:54:02;;;;;;;0.20;0.20;;;22.40;99.90;;;;;;5069473;28;20210;-91
2021/06/04 07:56:28;;;;;;;0.10;0.10;;;22.30;99.90;;;;;;5069802;28;20020;-92
2021/06/04 07:58:54;;;;;;;0.00;0.00;;;22.10;99.90;;;;;;5069623;28;20489;-91
2021/06/04 08:01:20;;;;;;;0.13;0.13;;;22.20;99.90;;;;;;5069485;28;20686;-90
2021/06/04 08:03:47;;;;;;;0.52;0.25;;;22.20;99.90;;;;;;5070267;28;20476;-89
2021/06/04 08:06:16;;;;;;;0.20;0.20;;;21.70;99.90;;;;;;5068912;28;20037;-89
2021/06/04 08:08:43;;;;;;;0.60;0.60;;;21.90;99.90;;;;;;5068248;28;20123;-90
2021/06/04 08:11:10;;;;;;;;;;;21.30;99.90;;;;;;5069077;28;20032;-90
2021/06/04 08:13:37;;;;;;;0.45;0.45;;;21.60;99.90;;;;;;5068757;28;19915;-89
2021/06/04 08:16:06;;;;;;;0.15;0.15;;;21.50;99.90;;;;;;5068558;28;20024;-89
2021/06/04 08:18:36;;;;;;;0.38;0.32;;;21.70;99.90;;;;;;5068403;28;20016;-90
2021/06/04 08:21:06;;;;;;;0.17;0.17;;;21.70;99.90;;;;;;5069641;28;20037;-89
2021/06/04 08:23:36;;;;;;;0.00;0.00;;;21.70;99.90;;;;;;5069759;28;20039;-90
2021/06/04 08:26:05;;;;;;;0.10;0.10;;;21.90;99.90;;;;;;5068370;28;20032;-89
2021/06/04 08:28:31;;;;;;;0.08;0.08;;;21.90;99.90;;;;;;5068087;28;20055;-88
2021/06/04 08:30:58;;;;;;;1.37;0.73;;;21.90;99.90;;;;;;5068057;28;20561;-88
2021/06/04 08:33:32;;;;;;;0.43;0.30;;;22.10;99.90;;;;;;5069621;28;20029;-88
2021/06/04 08:35:59;;;;;;;1.80;0.73;;;22.10;99.90;;;;;;5068328;28;20142;-90
2021/06/04 08:38:26;;;;;;;;;;;21.90;99.90;;;;;;5069020;28;20504;-91
2021/06/04 08:40:52;;;;;;;0.10;0.10;;;21.70;99.90;;;;;;5068438;28;19912;-91
2021/06/04 08:43:29;;;;;;;0.65;0.40;;;21.40;99.90;;;;;;5068352;28;20037;-90
2021/06/04 08:45:57;;;;;;;;;;;21.30;99.90;;;;;;5068776;28;20497;-90
2021/06/04 08:49:00;;;;;;;0.45;0.10;;;21.20;99.90;;;;;;5068430;28;19949;-90
2021/06/04 08:51:35;;;;;;;0.10;0.10;;;21.00;99.90;;;;;;5068682;28;20029;-90
2021/06/04 08:54:21;;;;;;;0.45;0.15;;;21.10;99.90;;;;;;5068409;28;20111;-91
2021/06/04 08:57:04;;;;;;;0.57;0.57;;;21.00;99.90;;;;;;5068458;28;20028;-90
2021/06/04 08:59:33;;;;;;;0.00;0.00;;;21.00;99.90;;;;;;5068610;28;20039;-91
2021/06/04 09:02:12;;;;;;;0.60;0.45;;;20.80;99.90;;;;;;5068229;28;20020;-90
2021/06/04 09:04:55;;;;;;;0.20;0.15;;;20.70;99.90;;;;;;5068475;28;20124;-91
2021/06/04 09:07:30;;;;;;;0.20;0.20;;;20.40;99.90;;;;;;5068337;28;20119;-91
2021/06/04 09:09:59;;;;;;;0.10;0.10;;;20.30;99.90;;;;;;5068535;28;20035;-90
2021/06/04 09:12:51;;;;;;;0.20;0.20;;;20.20;99.90;;;;;;5068687;28;20017;-91
2021/06/04 09:15:21;;;;;;;4.20;0.35;;;19.90;99.90;;;;;;5067902;28;20208;-90
2021/06/04 09:18:06;;;;;;;0.30;0.30;;;20.40;99.90;;;;;;5067991;28;20039;-92
2021/06/04 09:20:42;;;;;;;0.30;0.20;;;20.50;99.90;;;;;;5068893;28;20452;-92
2021/06/04 09:23:11;;;;;;;0.20;0.20;;;20.70;99.90;;;;;;5068758;28;20321;-92
2021/06/04 09:25:37;;;;;;;0.10;0.10;;;20.60;99.90;;;;;;5068417;28;20033;-91
2021/06/04 09:28:09;;;;;;;0.00;0.00;;;20.30;99.90;;;;;;5068262;28;20032;-90
2021/06/04 09:30:37;;;;;;;0.10;0.10;;;20.10;99.90;;;;;;5067638;28;20101;-90
2021/06/04 09:33:05;;;;;;;0.00;0.00;;;19.80;99.90;;;;;;5068316;28;20020;-89
2021/06/04 09:35:32;;;;;;;0.10;0.10;;;19.80;99.90;;;;;;5067833;28;20032;-90
2021/06/04 09:38:10;;;;;;;;;;;19.80;99.90;;;;;;5067647;28;20024;-89
2021/06/04 09:40:38;;;;;;;2.20;0.90;;;19.90;99.90;;;;;;5067495;28;19908;-89
2021/06/04 09:43:14;;;;;;;0.10;0.10;;;20.00;99.90;;;;;;5068886;28;20382;-89
2021/06/04 09:45:52;;;;;;;0.10;0.10;;;20.10;99.90;;;;;;5068867;28;20069;-89
2021/06/04 09:48:39;;;;;;;0.30;0.30;;;20.40;99.90;;;;;;5067271;28;20035;-88
2021/06/04 09:51:22;;;;;;;0.00;0.00;;;20.60;99.90;;;;;;5067652;28;20028;-89
2021/06/04 09:53:49;;;;;;;0.00;0.00;;;20.60;99.90;;;;;;5068961;28;20025;-90
2021/06/04 09:56:26;;;;;;;0.40;0.40;;;20.50;99.90;;;;;;5067744;28;20046;-89
2021/06/04 09:59:10;;;;;;;0.40;0.28;;;20.90;99.90;;;;;;5067401;28;20028;-90
2021/06/04 10:01:49;;;;;;;0.00;0.00;;;21.20;99.90;;;;;;5067433;28;20094;-90
2021/06/04 10:04:30;;;;;;;0.20;0.20;;;21.00;99.90;;;;;;5067900;28;20078;-90
2021/06/04 10:07:05;;;;;;;0.88;0.60;;;20.80;99.90;;;;;;5068189;28;20029;-90
2021/06/04 10:09:43;;;;;;;0.38;0.38;;;20.60;99.90;;;;;;5069603;28;20041;-91
2021/06/04 10:12:16;;;;;;;0.10;0.10;;;20.80;99.90;;;;;;5072147;28;20067;-91
2021/06/04 10:20:23;;;;;;;0.00;0.00;;;20.50;99.90;;;;;;5073085;28;20035;-91
2021/06/04 10:22:53;;;;;;;0.00;0.00;;;20.80;99.90;;;;;;5072036;28;20555;-91
2021/06/04 10:25:24;;;;;;;0.10;0.10;;;21.00;99.90;;;;;;5071379;28;20032;-89
2021/06/04 10:27:54;;;;;;;0.20;0.20;;;21.00;99.90;;;;;;5069877;28;20035;-86
2021/06/04 10:30:43;;;;;;;0.57;0.57;;;21.00;99.90;;;;;;5071204;28;20048;-84
2021/06/04 10:33:22;;;;;;;0.00;0.00;;;21.40;99.90;;;;;;5071599;28;20052;-86
2021/06/04 10:35:56;;;;;;;0.10;0.10;;;21.40;99.90;;;;;;5071708;28;20020;-83
2021/06/04 10:38:29;;;;;;;0.15;0.10;;;21.50;99.90;;;;;;5071851;28;20023;-86
2021/06/04 10:41:00;;;;;;;0.32;0.20;;;21.30;99.90;;;;;;5072106;28;20497;-87
2021/06/04 10:43:32;;;;;;;1.25;0.03;;;21.30;99.90;;;;;;5070129;28;20029;-90
2021/06/04 10:46:16;;;;;;;0.65;0.47;;;21.40;99.90;;;;;;5069620;28;20033;-87
2021/06/04 10:48:42;;;;;;;0.10;0.10;;;21.30;99.90;;;;;;5070080;28;20099;-90
2021/06/04 10:51:44;;;;;;;0.10;0.10;;;21.30;99.90;;;;;;5068298;28;20485;-88
2021/06/04 10:54:29;;;;;;;0.00;0.00;;;21.60;99.90;;;;;;5075573;28;20070;-89
2021/06/04 10:57:07;;;;;;;0.20;0.20;;;21.60;99.90;;;;;;5071439;28;20128;-88
2021/06/04 10:59:49;;;;;;;0.20;0.20;;;21.50;99.90;;;;;;5071760;28;20017;-90
2021/06/04 11:02:38;;;;;;;0.00;0.00;;;21.50;99.90;;;;;;5070158;28;20054;-88
2021/06/04 11:05:18;;;;;;;0.22;0.17;;;21.40;99.90;;;;;;5064796;28;20032;-90
2021/06/04 11:08:06;;;;;;;0.35;0.30;;;21.10;99.90;;;;;;5071318;28;20025;-93
2021/06/04 11:10:47;;;;;;;0.00;0.00;;;21.60;99.90;;;;;;5069800;28;20225;-88
2021/06/04 11:13:33;;;;;;;0.10;0.10;;;21.40;99.90;;;;;;5070100;28;20017;-87
2021/06/04 11:16:23;;;;;;;0.32;0.25;;;21.50;99.90;;;;;;5069057;28;20074;-87
2021/06/04 11:19:08;;;;;;;0.00;0.00;;;22.10;99.90;;;;;;5068434;28;20024;-87
2021/06/04 11:21:42;;;;;;;0.22;0.22;;;22.30;99.90;;;;;;5068507;28;20551;-87
2021/06/04 11:24:19;;;;;;;0.00;0.00;;;23.10;99.90;;;;;;5069575;28;20481;-88
2021/06/04 11:26:50;;;;;;;0.00;0.00;;;23.10;99.90;;;;;;5071961;28;20024;-90
2021/06/04 11:29:20;;;;;;;0.13;0.13;;;22.40;99.90;;;;;;5070433;28;20174;-89
2021/06/04 11:32:13;;;;;;;0.85;0.60;;;22.20;99.90;;;;;;5063136;28;20595;-88
2021/06/04 11:35:01;;;;;;;0.30;0.30;;;22.60;99.90;;;;;;5064651;28;20024;-87
2021/06/04 11:38:08;;;;;;;0.20;0.20;;;23.00;99.90;;;;;;5064755;28;20024;-89
2021/06/04 11:40:40;;;;;;;0.30;0.30;;;21.80;99.90;;;;;;5063306;28;20024;-89
2021/06/04 11:43:16;;;;;;;0.00;0.00;;;21.50;99.90;;;;;;5070846;28;20115;-90
2021/06/04 11:45:46;;;;;;;0.10;0.10;;;20.60;99.90;;;;;;5069691;28;20053;-90
2021/06/04 11:48:27;;;;;;;7.03;0.45;;;20.60;99.90;;;;;;5069469;28;20036;-91
2021/06/04 11:51:19;;;;;;;0.00;0.00;;;21.00;99.90;;;;;;5070702;28;20059;-90
2021/06/04 11:53:50;;;;;;;0.00;0.00;;;20.40;99.90;;;;;;5068946;28;20110;-89
2021/06/04 11:56:35;;;;;;;1.15;0.85;;;20.40;99.90;;;;;;5068091;28;20382;-89
2021/06/04 11:59:00;;;;;;;0.70;0.28;;;19.70;99.90;;;;;;5068458;28;20029;-90
2021/06/04 12:02:03;;;;;;;0.00;0.00;;;20.00;99.90;;;;;;5068662;28;20125;-87
2021/06/04 12:04:29;;;;;;;0.08;0.08;;;19.90;99.90;;;;;;5067034;28;20351;-87
2021/06/04 12:07:01;;;;;;;0.00;0.00;;;20.00;99.90;;;;;;5062803;28;20037;-87
2021/06/04 12:09:33;;;;;;;0.00;0.00;;;20.30;99.90;;;;;;5062244;28;20564;-87
2021/06/04 12:12:20;;;;;;;0.20;0.20;;;20.50;99.90;;;;;;5069399;28;20034;-87
2021/06/04 12:14:55;;;;;;;0.00;0.00;;;20.20;99.90;;;;;;5058547;28;20029;-87
2021/06/04 12:17:30;;;;;;;0.00;0.00;;;20.00;99.90;;;;;;5051745;28;20039;-87
2021/06/04 12:20:23;;;;;;;0.03;0.03;;;19.70;99.90;;;;;;5068108;28;20025;-87
2021/06/04 12:22:55;;;;;;;1.45;0.40;;;19.60;99.90;;;;;;5063175;28;20116;-87
2021/06/04 12:25:39;;;;;;;0.00;0.00;;;19.50;99.90;;;;;;5058302;28;20554;-88
2021/06/04 12:28:33;;;;;;;0.30;0.30;;;19.30;99.90;;;;;;5059650;28;20104;-88
2021/06/04 12:31:07;;;;;;;0.00;0.00;;;19.30;99.90;;;;;;5066996;28;20061;-90
2021/06/04 12:33:54;;;;;;;0.22;0.15;;;19.10;99.90;;;;;;5067837;28;20016;-90
2021/06/04 12:36:41;;;;;;;0.20;0.10;;;18.80;99.90;;;;;;5060925;28;20070;-88
2021/06/04 12:39:28;;;;;;;0.20;0.10;;;18.30;99.90;;;;;;5071764;28;20055;-91
2021/06/04 12:45:16;;;;;;;0.00;0.00;;;17.90;99.90;;;;;;5074126;28;20020;-92
2021/06/04 12:47:53;;;;;;;0.20;0.20;;;18.00;99.90;;;;;;5072833;28;20029;-91
2021/06/04 12:50:26;;;;;;;0.00;0.00;;;17.90;99.90;;;;;;5073976;28;20545;-92
2021/06/04 12:53:07;;;;;;;0.10;0.10;;;18.00;99.90;;;;;;5074061;28;20082;-91
2021/06/04 12:55:35;;;;;;;0.08;0.08;;;17.90;99.90;;;;;;5072425;28;20016;-91
2021/06/04 12:58:18;;;;;;;0.30;0.30;;;17.80;99.90;;;;;;5072701;28;20486;-92
2021/06/04 13:00:44;;;;;;;0.08;0.08;;;17.60;99.90;;;;;;5072200;28;20035;-92
2021/06/04 13:03:29;;;;;;;0.05;0.05;;;17.50;99.90;;;;;;5073148;28;20028;-92
2021/06/04 13:05:57;;;;;;;0.35;0.28;;;17.50;99.90;;;;;;5072693;28;20028;-91
2021/06/04 13:08:37;;;;;;;0.20;0.20;;;17.40;99.90;;;;;;5072610;28;20510;-92
2021/06/04 13:11:05;;;;;;;0.20;0.20;;;17.20;99.90;;;;;;5072178;28;20020;-91
2021/06/04 13:13:40;;;;;;;0.10;0.10;;;17.30;99.90;;;;;;5072408;28;20473;-91
2021/06/04 13:16:31;;;;;;;0.10;0.10;;;17.20;99.90;;;;;;5072447;28;20020;-91
2021/06/04 13:19:10;;;;;;;0.10;0.10;;;17.40;99.90;;;;;;5072250;28;20089;-91
2021/06/04 13:21:39;;;;;;;2.30;0.65;;;17.10;99.90;;;;;;5073521;28;20546;-91
2021/06/04 13:24:15;;;;;;;0.13;0.05;;;16.90;99.90;;;;;;5074178;28;20093;-91
2021/06/04 13:26:45;;;;;;;0.30;0.30;;;16.70;99.90;;;;;;5073483;28;20021;-92
2021/06/04 13:29:17;;;;;;;0.10;0.10;;;16.70;99.90;;;;;;5071851;28;20067;-91
2021/06/04 13:32:07;;;;;;;0.20;0.20;;;16.50;99.90;;;;;;5073463;28;20492;-91